createdAt,value
2018-08-31T00:00:45.857Z,12.77
2018-08-31T00:03:24.223Z,12.37
2018-08-31T00:06:07.139Z,18.67
2018-08-31T00:09:08.812Z,18.07
2018-08-31T00:12:49.701Z,13.93
2018-08-31T00:15:23.156Z,14.60
2018-08-31T00:17:58.726Z,13.60
2018-08-31T00:20:41.031Z,15.90
2018-08-31T00:23:25.996Z,18.10
2018-08-31T00:28:10.817Z,15.93
2018-08-31T00:30:52.359Z,14.67
2018-08-31T00:45:36.853Z,15.00
2018-08-31T00:48:14.142Z,18.57
2018-08-31T00:50:52.609Z,18.50
2018-08-31T00:56:45.931Z,17.03
2018-08-31T00:59:18.496Z,15.43
2018-08-31T01:01:51.055Z,18.60
2018-08-31T01:04:26.097Z,16.90
2018-08-31T01:07:01.866Z,52.10
2018-08-31T01:09:39.394Z,86.07
2018-08-31T01:12:16.659Z,64.83
2018-08-31T01:14:49.999Z,57.47
2018-08-31T01:17:24.680Z,55.70
2018-08-31T01:19:59.859Z,74.40
2018-08-31T01:22:34.751Z,35.90
2018-08-31T01:25:08.644Z,29.63
2018-08-31T01:27:41.330Z,22.60
2018-08-31T01:30:13.790Z,19.20
2018-08-31T01:32:46.344Z,19.10
2018-08-31T01:35:18.881Z,16.70
2018-08-31T01:37:51.988Z,10.93
2018-08-31T01:40:24.495Z,17.50
2018-08-31T01:42:57.273Z,10.53
2018-08-31T01:45:29.700Z,13.47
2018-08-31T01:48:02.444Z,20.80
2018-08-31T01:50:34.896Z,20.43
2018-08-31T01:53:07.911Z,16.57
2018-08-31T01:55:40.328Z,18.03
2018-08-31T01:58:12.816Z,21.03
2018-08-31T02:00:45.771Z,18.10
2018-08-31T02:03:18.199Z,19.57
2018-08-31T02:05:50.759Z,15.60
2018-08-31T02:08:23.655Z,14.37
2018-08-31T02:10:56.193Z,15.47
2018-08-31T02:13:29.044Z,14.73
2018-08-31T02:16:02.023Z,13.17
2018-08-31T02:18:37.726Z,14.83
2018-08-31T02:21:09.860Z,14.53
2018-08-31T02:23:42.526Z,26.63
2018-08-31T02:26:17.557Z,68.40
2018-08-31T02:28:50.028Z,14.80
2018-08-31T02:31:22.819Z,22.17
2018-08-31T02:33:55.879Z,21.37
2018-08-31T02:36:28.520Z,21.60
2018-08-31T02:39:01.709Z,22.07
2018-08-31T02:41:35.334Z,16.33
2018-08-31T02:44:41.408Z,13.60
2018-08-31T02:47:14.375Z,14.07
2018-08-31T02:49:47.241Z,37.50
2018-08-31T02:52:19.564Z,21.63
2018-08-31T02:54:52.479Z,30.17
2018-08-31T02:57:25.635Z,22.10
2018-08-31T03:00:06.169Z,16.17
2018-08-31T03:02:50.964Z,18.73
2018-08-31T03:05:23.577Z,14.43
2018-08-31T03:07:57.686Z,16.03
2018-08-31T03:10:35.111Z,14.67
2018-08-31T03:13:22.392Z,14.43
2018-08-31T03:16:07.734Z,14.10
2018-08-31T03:18:44.403Z,16.03
2018-08-31T03:21:21.626Z,15.20
2018-08-31T03:23:54.965Z,16.33
2018-08-31T03:26:30.748Z,15.97
2018-08-31T03:29:05.196Z,17.40
2018-08-31T03:31:37.696Z,15.30
2018-08-31T03:34:10.323Z,15.80
2018-08-31T03:36:42.875Z,15.63
2018-08-31T03:39:15.661Z,18.00
2018-08-31T03:41:48.200Z,20.37
2018-08-31T03:44:20.420Z,23.13
2018-08-31T03:46:52.726Z,24.37
2018-08-31T03:49:24.981Z,23.03
2018-08-31T03:51:57.112Z,22.73
2018-08-31T03:54:29.297Z,26.63
2018-08-31T03:57:02.277Z,20.17
2018-08-31T03:59:34.726Z,17.83
2018-08-31T04:02:07.555Z,17.37
2018-08-31T04:04:39.677Z,15.43
2018-08-31T04:07:11.908Z,13.97
2018-08-31T04:09:44.277Z,18.07
2018-08-31T04:12:16.566Z,17.43
2018-08-31T04:14:48.915Z,15.73
2018-08-31T04:17:21.149Z,12.47
2018-08-31T04:19:57.366Z,11.10
2018-08-31T04:22:30.303Z,9.83
2018-08-31T04:25:02.684Z,8.67
2018-08-31T04:27:35.311Z,9.00
2018-08-31T04:30:08.019Z,9.40
2018-08-31T04:32:40.282Z,7.60
2018-08-31T04:35:13.838Z,8.00
2018-08-31T04:37:46.788Z,8.30
2018-08-31T04:40:19.217Z,8.57
2018-08-31T04:42:52.094Z,7.50
2018-08-31T04:45:24.350Z,7.40
2018-08-31T04:47:56.462Z,8.23
2018-08-31T04:50:30.709Z,8.10
2018-08-31T04:53:07.284Z,7.93
2018-08-31T04:55:40.798Z,10.20
2018-08-31T04:58:13.353Z,9.17
2018-08-31T05:00:45.676Z,7.10
2018-08-31T05:03:18.536Z,8.10
2018-08-31T05:05:51.037Z,6.93
2018-08-31T05:11:44.832Z,6.83
2018-08-31T05:14:17.416Z,7.47
2018-08-31T05:16:50.545Z,7.53
2018-08-31T05:19:23.089Z,7.23
2018-08-31T05:22:22.169Z,7.90
2018-08-31T05:28:16.404Z,8.47
2018-08-31T05:30:49.121Z,7.50
2018-08-31T05:33:21.924Z,6.83
2018-08-31T05:35:54.302Z,7.70
2018-08-31T05:38:26.904Z,9.27
2018-08-31T05:40:59.458Z,9.20
2018-08-31T05:43:31.809Z,8.77
2018-08-31T05:46:04.437Z,8.07
2018-08-31T05:48:37.147Z,9.37
2018-08-31T05:51:09.379Z,10.23
2018-08-31T05:54:06.290Z,7.97
2018-08-31T05:56:39.995Z,8.80
2018-08-31T05:59:13.660Z,7.97
2018-08-31T06:01:46.911Z,7.90
2018-08-31T06:04:20.249Z,7.80
2018-08-31T06:06:53.417Z,7.23
2018-08-31T06:09:26.264Z,6.93
2018-08-31T06:11:58.914Z,7.83
2018-08-31T06:14:31.714Z,7.97
2018-08-31T06:17:04.376Z,7.67
2018-08-31T06:19:37.026Z,7.53
2018-08-31T06:22:09.475Z,7.77
2018-08-31T06:24:41.971Z,9.00
2018-08-31T06:27:14.643Z,8.70
2018-08-31T06:33:09.289Z,8.40
2018-08-31T06:35:42.620Z,7.37
2018-08-31T06:38:17.578Z,7.33
2018-08-31T06:40:51.580Z,9.13
2018-08-31T06:43:25.301Z,8.30
2018-08-31T06:45:58.976Z,7.77
2018-08-31T06:48:32.728Z,8.67
2018-08-31T06:51:06.556Z,10.03
2018-08-31T06:53:39.905Z,9.90
2018-08-31T06:56:14.244Z,7.00
2018-08-31T06:58:48.376Z,6.73
2018-08-31T07:01:22.173Z,6.80
2018-08-31T07:03:55.741Z,7.60
2018-08-31T07:06:29.344Z,6.50
2018-08-31T07:09:17.435Z,5.83
2018-08-31T07:11:52.129Z,6.33
2018-08-31T07:14:25.916Z,6.13
2018-08-31T07:16:59.831Z,5.87
2018-08-31T07:19:33.215Z,5.40
2018-08-31T07:22:06.938Z,6.27
2018-08-31T07:24:40.490Z,5.97
2018-08-31T07:27:14.195Z,5.37
2018-08-31T07:29:47.719Z,5.37
2018-08-31T07:32:21.406Z,5.17
2018-08-31T07:34:55.113Z,5.53
2018-08-31T07:37:28.700Z,5.53
2018-08-31T07:40:02.346Z,5.37
2018-08-31T07:42:36.004Z,5.70
2018-08-31T07:45:09.645Z,6.17
2018-08-31T07:47:43.155Z,5.57
2018-08-31T07:50:16.824Z,5.20
2018-08-31T07:52:50.313Z,5.40
2018-08-31T07:55:23.753Z,5.40
2018-08-31T07:57:57.233Z,5.23
2018-08-31T08:00:30.714Z,5.37
2018-08-31T08:03:04.175Z,5.73
2018-08-31T08:05:37.767Z,4.80
2018-08-31T08:08:11.380Z,5.40
2018-08-31T08:10:45.028Z,5.63
2018-08-31T08:13:18.465Z,5.60
2018-08-31T08:15:52.160Z,5.23
2018-08-31T08:18:25.760Z,5.13
2018-08-31T08:20:59.223Z,5.77
2018-08-31T08:23:33.102Z,6.23
2018-08-31T08:26:06.526Z,6.83
2018-08-31T08:28:40.232Z,7.83
2018-08-31T08:31:14.369Z,7.23
2018-08-31T08:33:48.221Z,7.50
2018-08-31T08:36:22.276Z,7.73
2018-08-31T08:38:55.828Z,8.00
2018-08-31T08:41:29.432Z,8.17
2018-08-31T08:44:02.992Z,7.30
2018-08-31T08:46:36.677Z,7.00
2018-08-31T08:49:45.057Z,8.60
2018-08-31T08:52:17.212Z,8.93
2018-08-31T08:54:49.468Z,9.17
2018-08-31T08:57:22.401Z,8.57
2018-08-31T08:59:54.775Z,7.53
2018-08-31T09:02:27.104Z,8.83
2018-08-31T09:04:59.360Z,8.93
2018-08-31T09:07:31.867Z,8.77
2018-08-31T09:10:05.842Z,9.77
2018-08-31T09:12:38.315Z,8.90
2018-08-31T09:15:11.137Z,8.63
2018-08-31T09:17:43.512Z,9.00
2018-08-31T09:20:15.925Z,8.33
2018-08-31T09:22:48.382Z,8.73
2018-08-31T09:25:20.938Z,8.60
2018-08-31T09:27:53.300Z,9.67
2018-08-31T09:30:29.839Z,9.30
2018-08-31T09:33:02.287Z,8.23
2018-08-31T09:35:34.597Z,9.00
2018-08-31T09:38:07.739Z,9.43
2018-08-31T09:40:40.529Z,8.80
2018-08-31T09:43:13.246Z,9.23
2018-08-31T09:45:46.216Z,9.40
2018-08-31T09:48:18.563Z,10.60
2018-08-31T09:50:50.815Z,11.40
2018-08-31T09:53:23.309Z,10.27
2018-08-31T09:55:55.450Z,9.70
2018-08-31T09:58:27.984Z,11.20
2018-08-31T10:03:07.159Z,11.03
2018-08-31T10:05:39.777Z,11.87
2018-08-31T10:08:13.897Z,11.60
2018-08-31T10:10:48.382Z,11.77
2018-08-31T10:13:21.034Z,11.67
2018-08-31T10:15:53.886Z,12.53
2018-08-31T10:18:26.165Z,13.87
2018-08-31T10:20:58.422Z,12.83
2018-08-31T10:23:37.045Z,13.17
2018-08-31T10:26:12.491Z,12.90
2018-08-31T10:28:47.217Z,11.47
2018-08-31T10:31:19.636Z,11.53
2018-08-31T10:33:52.108Z,15.87
2018-08-31T10:36:24.836Z,27.17
2018-08-31T10:38:57.564Z,18.83
2018-08-31T10:41:29.900Z,22.13
2018-08-31T10:44:02.417Z,28.43
2018-08-31T10:46:35.382Z,19.03
2018-08-31T10:49:08.140Z,16.33
2018-08-31T10:51:40.605Z,15.60
2018-08-31T10:54:13.304Z,15.10
2018-08-31T10:56:45.703Z,14.40
2018-08-31T10:59:18.031Z,14.97
2018-08-31T11:01:52.458Z,16.63
2018-08-31T11:04:26.122Z,18.00
2018-08-31T11:06:58.557Z,18.30
2018-08-31T11:09:30.702Z,21.00
2018-08-31T11:12:03.087Z,20.97
2018-08-31T11:14:36.257Z,22.43
2018-08-31T11:17:09.916Z,22.10
2018-08-31T11:19:43.895Z,22.10
2018-08-31T11:22:17.725Z,22.53
2018-08-31T11:24:51.658Z,22.13
2018-08-31T11:27:25.594Z,24.37
2018-08-31T11:29:58.402Z,25.00
2018-08-31T11:32:30.658Z,24.90
2018-08-31T11:35:03.185Z,21.50
2018-08-31T11:37:35.770Z,20.73
2018-08-31T11:40:08.864Z,18.30
2018-08-31T11:42:41.108Z,18.93
2018-08-31T11:45:13.453Z,17.10
2018-08-31T11:47:46.709Z,16.70
2018-08-31T11:50:20.169Z,16.73
2018-08-31T11:52:52.664Z,16.83
2018-08-31T11:55:25.189Z,16.73
2018-08-31T11:57:57.640Z,22.57
2018-08-31T12:00:30.241Z,19.57
2018-08-31T12:03:02.832Z,15.87
2018-08-31T12:05:35.113Z,14.37
2018-08-31T12:08:07.481Z,15.97
2018-08-31T12:10:40.071Z,17.07
2018-08-31T12:13:12.580Z,16.73
2018-08-31T12:15:44.996Z,16.50
2018-08-31T12:18:18.121Z,15.50
2018-08-31T12:20:50.594Z,15.93
2018-08-31T12:23:22.977Z,14.20
2018-08-31T12:25:55.256Z,12.53
2018-08-31T12:28:28.293Z,12.70
2018-08-31T12:31:00.642Z,12.20
2018-08-31T12:33:34.158Z,11.47
2018-08-31T12:36:06.982Z,13.27
2018-08-31T12:38:41.902Z,14.43
2018-08-31T12:41:14.217Z,13.70
2018-08-31T12:43:48.045Z,14.93
2018-08-31T12:46:20.622Z,16.80
2018-08-31T12:48:53.248Z,14.10
2018-08-31T12:51:25.930Z,15.43
2018-08-31T12:53:58.788Z,10.63
2018-08-31T12:56:31.133Z,13.13
2018-08-31T12:59:03.774Z,14.03
2018-08-31T13:01:36.156Z,10.33
2018-08-31T13:04:08.355Z,9.13
2018-08-31T13:06:45.123Z,10.10
2018-08-31T13:09:17.360Z,13.30
2018-08-31T13:11:49.589Z,15.40
2018-08-31T13:14:21.900Z,13.23
2018-08-31T13:16:54.021Z,12.47
2018-08-31T13:19:26.188Z,12.77
2018-08-31T13:21:59.162Z,11.50
2018-08-31T13:24:31.329Z,11.67
2018-08-31T13:27:03.607Z,11.93
2018-08-31T13:29:37.166Z,10.50
2018-08-31T13:32:09.530Z,11.43
2018-08-31T13:34:50.906Z,13.63
2018-08-31T13:37:23.405Z,12.87
2018-08-31T13:39:55.531Z,11.80
2018-08-31T13:42:27.780Z,11.97
2018-08-31T13:44:59.944Z,10.67
2018-08-31T13:47:32.086Z,9.17
2018-08-31T13:50:04.889Z,10.03
2018-08-31T13:52:37.180Z,8.40
2018-08-31T13:55:09.700Z,8.87
2018-08-31T13:57:42.006Z,9.07
2018-08-31T14:00:14.811Z,10.77
2018-08-31T14:02:47.016Z,8.13
2018-08-31T14:05:19.131Z,10.50
2018-08-31T14:07:51.464Z,9.33
2018-08-31T14:10:23.907Z,14.70
2018-08-31T14:12:56.281Z,8.50
2018-08-31T14:15:28.835Z,7.37
2018-08-31T14:18:01.913Z,7.80
2018-08-31T14:20:34.254Z,6.73
2018-08-31T14:23:07.012Z,5.57
2018-08-31T14:25:39.490Z,6.70
2018-08-31T14:28:12.301Z,6.07
2018-08-31T14:30:45.161Z,5.17
2018-08-31T14:33:18.224Z,6.30
2018-08-31T14:35:50.705Z,6.67
2018-08-31T14:38:27.002Z,5.00
2018-08-31T14:40:59.291Z,4.90
2018-08-31T14:43:31.561Z,4.97
2018-08-31T14:48:50.744Z,5.47
2018-08-31T14:51:35.036Z,6.60
2018-08-31T14:54:17.369Z,4.40
2018-08-31T14:56:49.589Z,5.72
2018-08-31T14:59:28.455Z,4.70
2018-08-31T15:02:06.123Z,6.15
2018-08-31T15:04:58.267Z,6.40
2018-08-31T15:07:51.557Z,7.03
2018-08-31T15:10:48.927Z,6.10
2018-08-31T15:16:45.072Z,8.23
2018-08-31T15:19:39.580Z,8.28
2018-08-31T15:22:35.891Z,5.37
2018-08-31T15:25:32.098Z,5.20
2018-08-31T15:28:27.491Z,5.53
2018-08-31T15:31:17.549Z,5.35
2018-08-31T15:34:11.472Z,8.18
2018-08-31T15:36:44.869Z,9.40
2018-08-31T15:39:17.438Z,8.58
2018-08-31T15:41:50.406Z,5.10
2018-08-31T15:44:23.189Z,5.10
2018-08-31T15:46:58.101Z,5.23
2018-08-31T15:49:31.875Z,5.30
2018-08-31T15:52:10.767Z,4.90
2018-08-31T15:54:46.790Z,5.97
2018-08-31T15:57:24.845Z,4.80
2018-08-31T16:00:02.550Z,5.90
2018-08-31T16:02:37.339Z,5.20
2018-08-31T16:05:13.153Z,6.97
2018-08-31T16:07:45.835Z,4.75
2018-08-31T16:10:18.288Z,4.80
2018-08-31T16:12:50.921Z,5.90
2018-08-31T16:15:23.864Z,5.28
2018-08-31T16:21:17.046Z,3.72
2018-08-31T16:23:49.981Z,4.42
2018-08-31T16:26:22.472Z,4.95
2018-08-31T16:28:54.729Z,5.83
2018-08-31T16:31:26.968Z,3.87
2018-08-31T16:34:06.518Z,4.10
2018-08-31T16:36:39.302Z,8.00
2018-08-31T16:39:12.625Z,4.97
2018-08-31T16:41:45.162Z,4.70
2018-08-31T16:44:17.309Z,4.72
2018-08-31T16:46:49.941Z,6.00
2018-08-31T16:49:21.979Z,5.25
2018-08-31T16:51:54.036Z,5.37
2018-08-31T16:54:26.486Z,4.67
2018-08-31T16:56:59.171Z,5.10
2018-08-31T16:59:31.731Z,4.80
2018-08-31T17:02:03.979Z,4.22
2018-08-31T17:04:36.659Z,4.37
2018-08-31T17:07:08.967Z,5.00
2018-08-31T17:09:44.148Z,4.00
2018-08-31T17:12:16.478Z,4.83
2018-08-31T17:14:51.309Z,5.20
2018-08-31T17:17:23.324Z,4.92
2018-08-31T17:20:00.082Z,6.75
2018-08-31T17:25:57.085Z,3.90
2018-08-31T17:28:35.546Z,4.67
2018-08-31T17:31:12.391Z,4.17
2018-08-31T17:33:50.428Z,4.40
2018-08-31T17:36:27.910Z,4.17
2018-08-31T17:39:00.868Z,4.28
2018-08-31T17:41:33.769Z,3.98
2018-08-31T17:44:13.332Z,4.08
2018-08-31T17:46:47.675Z,5.33
2018-08-31T17:49:20.633Z,4.40
2018-08-31T17:51:53.813Z,5.00
2018-08-31T17:54:29.967Z,5.65
2018-08-31T17:57:03.009Z,5.50
2018-08-31T17:59:35.795Z,4.92
2018-08-31T18:02:09.656Z,5.65
2018-08-31T18:04:42.160Z,6.58
2018-08-31T18:07:15.154Z,5.15
2018-08-31T18:09:47.905Z,5.25
2018-08-31T18:12:21.077Z,4.50
2018-08-31T18:14:53.827Z,5.28
2018-08-31T18:17:26.653Z,7.75
2018-08-31T18:19:59.765Z,8.68
2018-08-31T18:22:32.563Z,7.83
2018-08-31T18:25:05.018Z,5.10
2018-08-31T18:27:38.561Z,5.28
2018-08-31T18:30:11.735Z,6.10
2018-08-31T18:32:45.228Z,6.30
2018-08-31T18:35:21.610Z,5.25
2018-08-31T18:37:54.828Z,5.62
2018-08-31T18:40:28.402Z,5.15
2018-08-31T18:43:02.698Z,5.53
2018-08-31T18:45:36.213Z,6.17
2018-08-31T18:48:44.772Z,5.47
2018-08-31T18:51:21.066Z,4.35
2018-08-31T18:53:54.326Z,6.20
2018-08-31T18:56:26.836Z,6.78
2018-08-31T18:59:01.085Z,4.75
2018-08-31T19:01:33.489Z,7.12
2018-08-31T19:07:27.081Z,6.55
2018-08-31T19:10:00.564Z,5.33
2018-08-31T19:15:59.320Z,5.30
2018-08-31T19:18:32.255Z,5.70
2018-08-31T19:21:06.670Z,5.62
2018-08-31T19:23:39.883Z,5.53
2018-08-31T19:26:12.409Z,6.45
2018-08-31T19:28:44.941Z,6.90
2018-08-31T19:34:38.050Z,4.75
2018-08-31T19:37:10.443Z,5.75
2018-08-31T19:39:43.458Z,5.00
2018-08-31T19:42:17.394Z,5.35
2018-08-31T19:44:50.062Z,6.17
2018-08-31T19:47:23.647Z,5.22
2018-08-31T19:53:16.862Z,4.83
2018-08-31T19:55:49.307Z,4.87
2018-08-31T19:58:22.275Z,5.65
2018-08-31T20:00:54.590Z,5.08
2018-08-31T20:03:26.866Z,5.35
2018-08-31T20:05:59.381Z,5.90
2018-08-31T20:08:31.927Z,5.75
2018-08-31T20:14:26.476Z,7.87
2018-08-31T20:16:58.968Z,7.45
2018-08-31T20:19:32.294Z,8.13
2018-08-31T20:22:05.844Z,7.08
2018-08-31T20:24:38.282Z,9.13
2018-08-31T20:30:33.699Z,10.43
2018-08-31T20:33:06.352Z,10.63
2018-08-31T20:35:39.311Z,14.40
2018-08-31T20:41:17.880Z,20.50
2018-08-31T20:44:02.308Z,17.10
2018-08-31T20:46:42.614Z,21.87
2018-08-31T20:49:18.240Z,20.47
2018-08-31T20:51:55.191Z,17.60
2018-08-31T20:55:12.554Z,22.57
2018-08-31T20:57:45.240Z,22.00
2018-08-31T21:00:29.656Z,21.23
2018-08-31T21:03:06.942Z,23.37
2018-08-31T21:05:43.534Z,20.63
2018-08-31T21:11:17.221Z,23.97
2018-08-31T21:14:08.287Z,22.23
2018-08-31T21:16:47.567Z,23.53
2018-08-31T21:19:39.160Z,23.13
2018-08-31T21:22:27.928Z,25.50
2018-08-31T21:25:08.661Z,22.13
2018-08-31T21:27:48.171Z,20.60
2018-08-31T21:30:20.962Z,23.87
2018-08-31T21:32:53.945Z,26.13
2018-08-31T21:35:26.686Z,22.47
2018-08-31T21:37:59.508Z,24.73
2018-08-31T21:40:32.340Z,29.20
2018-08-31T21:43:05.158Z,28.03
2018-08-31T21:45:37.925Z,33.30
2018-08-31T21:51:40.981Z,38.83
2018-08-31T21:54:16.901Z,39.40
2018-08-31T21:56:49.231Z,35.67
2018-08-31T21:59:21.941Z,36.00
2018-08-31T22:01:56.733Z,38.40
2018-08-31T22:04:30.549Z,35.43
2018-08-31T22:07:03.256Z,39.30
2018-08-31T22:09:36.357Z,36.83
2018-08-31T22:12:09.877Z,38.40
2018-08-31T22:18:13.280Z,36.20
2018-08-31T22:24:17.614Z,32.00
2018-08-31T22:26:50.252Z,34.57
2018-08-31T22:29:23.111Z,32.67
2018-08-31T22:31:55.390Z,27.80
2018-08-31T22:34:29.388Z,30.33
2018-08-31T22:37:02.391Z,25.50
2018-08-31T22:39:34.923Z,29.40
2018-08-31T22:42:08.131Z,31.67
2018-08-31T22:44:44.168Z,31.77
2018-08-31T22:47:17.886Z,26.50
2018-08-31T22:49:51.026Z,25.50
2018-08-31T22:52:25.860Z,21.37
2018-08-31T22:54:58.740Z,23.17
2018-08-31T22:57:32.053Z,21.90
2018-08-31T23:00:04.854Z,19.40
2018-08-31T23:02:37.857Z,21.57
2018-08-31T23:05:11.614Z,24.87
2018-08-31T23:07:48.844Z,21.03
2018-08-31T23:10:21.675Z,21.30
2018-08-31T23:12:54.793Z,22.40
2018-08-31T23:15:28.091Z,20.23
2018-08-31T23:18:00.908Z,20.97
2018-08-31T23:20:33.987Z,21.80
2018-08-31T23:23:11.476Z,19.27
2018-08-31T23:25:51.680Z,20.40
2018-08-31T23:28:24.677Z,26.20
2018-08-31T23:30:57.463Z,26.00
2018-08-31T23:33:30.529Z,30.67
2018-08-31T23:36:03.815Z,23.00
2018-08-31T23:38:36.728Z,26.73
2018-08-31T23:41:11.543Z,26.53
2018-08-31T23:43:44.524Z,29.73
2018-08-31T23:46:17.699Z,34.50
2018-08-31T23:48:50.587Z,29.63
2018-08-31T23:51:23.307Z,27.93
2018-08-31T23:53:57.262Z,24.70
2018-08-31T23:56:30.243Z,23.63
2018-08-31T23:59:03.117Z,24.90
